sensor_id;sensor_type;location;lat;lon;timestamp;pressure;altitude;pressure_sealevel;temperature;humidity
23733;BME280;12047;53.450;-2.286;2023-04-25T00:02:47;101462.22;;;12.38;67.01
23733;BME280;12047;53.450;-2.286;2023-04-25T00:07:47;101463.34;;;12.36;68.17
23733;BME280;12047;53.450;-2.286;2023-04-25T00:12:48;101461.28;;;12.18;68.87
23733;BME280;12047;53.450;-2.286;2023-04-25T00:17:48;101466.91;;;11.83;69.85
23733;BME280;12047;53.450;-2.286;2023-04-25T00:22:49;101463.78;;;11.67;71.04
23733;BME280;12047;53.450;-2.286;2023-04-25T00:27:49;101458.88;;;11.95;70.66
23733;BME280;12047;53.450;-2.286;2023-04-25T00:32:50;101459.28;;;12.11;70.91
23733;BME280;12047;53.450;-2.286;2023-04-25T00:37:50;101458.56;;;12.30;70.09
23733;BME280;12047;53.450;-2.286;2023-04-25T00:42:52;101459.22;;;12.01;70.77
23733;BME280;12047;53.450;-2.286;2023-04-25T00:47:54;101449.88;;;11.43;70.94
23733;BME280;12047;53.450;-2.286;2023-04-25T00:52:54;101465.16;;;11.62;71.39
23733;BME280;12047;53.450;-2.286;2023-04-25T00:57:55;101453.16;;;11.67;71.34
23733;BME280;12047;53.450;-2.286;2023-04-25T01:02:55;101461.56;;;11.51;71.28
23733;BME280;12047;53.450;-2.286;2023-04-25T01:07:56;101468.88;;;11.27;72.27
23733;BME280;12047;53.450;-2.286;2023-04-25T01:12:57;101457.84;;;11.43;72.45
23733;BME280;12047;53.450;-2.286;2023-04-25T01:17:57;101461.59;;;11.83;70.66
23733;BME280;12047;53.450;-2.286;2023-04-25T01:22:58;101456.09;;;11.32;71.56
23733;BME280;12047;53.450;-2.286;2023-04-25T01:27:59;101466.03;;;10.52;73.62
23733;BME280;12047;53.450;-2.286;2023-04-25T01:33:00;101465.53;;;11.03;74.04
23733;BME280;12047;53.450;-2.286;2023-04-25T01:38:01;101464.28;;;11.29;73.65
23733;BME280;12047;53.450;-2.286;2023-04-25T01:43:01;101479.03;;;11.11;73.51
23733;BME280;12047;53.450;-2.286;2023-04-25T01:48:02;101471.63;;;11.37;73.24
23733;BME280;12047;53.450;-2.286;2023-04-25T01:53:03;101477.13;;;10.79;74.52
23733;BME280;12047;53.450;-2.286;2023-04-25T01:58:04;101479.53;;;10.38;76.68
23733;BME280;12047;53.450;-2.286;2023-04-25T02:03:09;101477.63;;;10.84;76.09
23733;BME280;12047;53.450;-2.286;2023-04-25T02:08:10;101494.59;;;11.04;75.53
23733;BME280;12047;53.450;-2.286;2023-04-25T02:13:10;101489.19;;;10.61;75.86
23733;BME280;12047;53.450;-2.286;2023-04-25T02:18:11;101488.13;;;9.94;77.72
23733;BME280;12047;53.450;-2.286;2023-04-25T02:23:11;101479.66;;;10.59;77.59
23733;BME280;12047;53.450;-2.286;2023-04-25T02:28:11;101488.03;;;10.41;78.13
23733;BME280;12047;53.450;-2.286;2023-04-25T02:33:12;101480.75;;;10.10;79.89
23733;BME280;12047;53.450;-2.286;2023-04-25T02:38:12;101481.22;;;10.39;79.63
23733;BME280;12047;53.450;-2.286;2023-04-25T02:43:13;101480.13;;;10.75;78.58
23733;BME280;12047;53.450;-2.286;2023-04-25T02:48:14;101493.91;;;9.40;82.38
23733;BME280;12047;53.450;-2.286;2023-04-25T02:53:14;101495.50;;;10.01;84.52
23733;BME280;12047;53.450;-2.286;2023-04-25T02:58:15;101496.78;;;9.84;86.46
23733;BME280;12047;53.450;-2.286;2023-04-25T03:03:15;101483.84;;;10.95;82.47
23733;BME280;12047;53.450;-2.286;2023-04-25T03:08:18;101480.63;;;10.80;82.73
23733;BME280;12047;53.450;-2.286;2023-04-25T03:13:19;101481.81;;;10.65;83.32
23733;BME280;12047;53.450;-2.286;2023-04-25T03:18:19;101487.84;;;10.67;83.35
23733;BME280;12047;53.450;-2.286;2023-04-25T03:23:20;101500.94;;;10.46;84.17
23733;BME280;12047;53.450;-2.286;2023-04-25T03:28:20;101509.41;;;9.92;86.52
23733;BME280;12047;53.450;-2.286;2023-04-25T03:33:21;101507.72;;;9.91;88.83
23733;BME280;12047;53.450;-2.286;2023-04-25T03:38:22;101500.00;;;10.12;88.33
23733;BME280;12047;53.450;-2.286;2023-04-25T03:43:22;101505.50;;;10.44;87.05
23733;BME280;12047;53.450;-2.286;2023-04-25T03:48:23;101513.94;;;9.79;89.18
23733;BME280;12047;53.450;-2.286;2023-04-25T03:53:25;101512.13;;;10.03;88.05
23733;BME280;12047;53.450;-2.286;2023-04-25T03:58:25;101510.34;;;9.80;88.84
23733;BME280;12047;53.450;-2.286;2023-04-25T04:03:26;101512.56;;;9.86;88.55
23733;BME280;12047;53.450;-2.286;2023-04-25T04:08:26;101526.13;;;9.58;89.56
23733;BME280;12047;53.450;-2.286;2023-04-25T04:13:29;101531.44;;;9.45;91.44
23733;BME280;12047;53.450;-2.286;2023-04-25T04:18:30;101525.16;;;9.22;93.65
23733;BME280;12047;53.450;-2.286;2023-04-25T04:23:30;101536.06;;;9.54;91.85
23733;BME280;12047;53.450;-2.286;2023-04-25T04:28:31;101535.06;;;9.68;91.74
23733;BME280;12047;53.450;-2.286;2023-04-25T04:33:31;101541.00;;;9.35;91.96
23733;BME280;12047;53.450;-2.286;2023-04-25T04:38:32;101536.84;;;9.67;91.59
23733;BME280;12047;53.450;-2.286;2023-04-25T04:43:32;101539.19;;;9.72;91.54
23733;BME280;12047;53.450;-2.286;2023-04-25T04:48:36;101543.81;;;9.44;92.76
23733;BME280;12047;53.450;-2.286;2023-04-25T04:53:37;101534.00;;;8.84;96.74
23733;BME280;12047;53.450;-2.286;2023-04-25T04:58:37;101537.84;;;8.15;100.00
23733;BME280;12047;53.450;-2.286;2023-04-25T05:03:38;101544.88;;;9.05;100.00
23733;BME280;12047;53.450;-2.286;2023-04-25T05:08:38;101549.31;;;8.67;100.00
23733;BME280;12047;53.450;-2.286;2023-04-25T05:13:39;101560.25;;;9.37;97.30
23733;BME280;12047;53.450;-2.286;2023-04-25T05:18:40;101568.31;;;9.35;96.53
23733;BME280;12047;53.450;-2.286;2023-04-25T05:23:40;101566.88;;;9.06;99.73
23733;BME280;12047;53.450;-2.286;2023-04-25T05:28:41;101562.44;;;9.79;97.40
23733;BME280;12047;53.450;-2.286;2023-04-25T05:33:42;101565.31;;;10.59;93.58
23733;BME280;12047;53.450;-2.286;2023-04-25T05:38:42;101572.34;;;11.16;90.72
23733;BME280;12047;53.450;-2.286;2023-04-25T05:43:43;101583.06;;;11.48;87.94
23733;BME280;12047;53.450;-2.286;2023-04-25T05:48:47;101589.94;;;11.39;87.40
23733;BME280;12047;53.450;-2.286;2023-04-25T05:53:47;101594.44;;;11.93;85.61
23733;BME280;12047;53.450;-2.286;2023-04-25T05:58:48;101590.03;;;11.82;85.81
23733;BME280;12047;53.450;-2.286;2023-04-25T06:03:48;101591.34;;;12.20;84.89
23733;BME280;12047;53.450;-2.286;2023-04-25T06:08:49;101590.34;;;12.32;84.31
23733;BME280;12047;53.450;-2.286;2023-04-25T06:13:49;101586.38;;;12.47;83.83
23733;BME280;12047;53.450;-2.286;2023-04-25T06:18:50;101601.47;;;11.72;87.08
23733;BME280;12047;53.450;-2.286;2023-04-25T06:23:50;101604.53;;;11.45;87.72
23733;BME280;12047;53.450;-2.286;2023-04-25T06:28:51;101598.97;;;12.13;86.76
23733;BME280;12047;53.450;-2.286;2023-04-25T06:33:51;101596.88;;;12.70;84.15
23733;BME280;12047;53.450;-2.286;2023-04-25T06:38:54;101595.88;;;12.08;85.14
23733;BME280;12047;53.450;-2.286;2023-04-25T06:43:55;101604.28;;;12.13;87.49
23733;BME280;12047;53.450;-2.286;2023-04-25T06:48:55;101609.28;;;12.80;82.70
23733;BME280;12047;53.450;-2.286;2023-04-25T06:53:56;101610.97;;;13.12;81.52
23733;BME280;12047;53.450;-2.286;2023-04-25T06:58:56;101614.06;;;13.38;78.73
23733;BME280;12047;53.450;-2.286;2023-04-25T07:03:58;101622.53;;;14.21;73.82
23733;BME280;12047;53.450;-2.286;2023-04-25T07:08:58;101625.34;;;14.20;73.52
23733;BME280;12047;53.450;-2.286;2023-04-25T07:13:59;101626.78;;;14.62;70.81
23733;BME280;12047;53.450;-2.286;2023-04-25T07:19:00;101630.16;;;14.55;69.27
23733;BME280;12047;53.450;-2.286;2023-04-25T07:24:00;101635.59;;;14.24;68.74
23733;BME280;12047;53.450;-2.286;2023-04-25T07:29:01;101628.78;;;15.17;67.65
23733;BME280;12047;53.450;-2.286;2023-04-25T07:34:01;101637.34;;;15.11;64.22
23733;BME280;12047;53.450;-2.286;2023-04-25T07:39:02;101634.63;;;14.83;63.90
23733;BME280;12047;53.450;-2.286;2023-04-25T07:44:03;101634.84;;;15.46;61.24
23733;BME280;12047;53.450;-2.286;2023-04-25T07:49:03;101634.16;;;15.99;57.75
23733;BME280;12047;53.450;-2.286;2023-04-25T07:54:04;101646.91;;;15.50;58.44
23733;BME280;12047;53.450;-2.286;2023-04-25T07:59:05;101657.00;;;13.94;58.86
23733;BME280;12047;53.450;-2.286;2023-04-25T08:04:06;101652.28;;;15.41;55.33
23733;BME280;12047;53.450;-2.286;2023-04-25T08:09:06;101661.00;;;14.86;55.88
23733;BME280;12047;53.450;-2.286;2023-04-25T08:14:08;101645.78;;;15.16;54.59
23733;BME280;12047;53.450;-2.286;2023-04-25T08:19:09;101658.38;;;15.70;54.30
23733;BME280;12047;53.450;-2.286;2023-04-25T08:24:11;101658.72;;;16.65;51.96
23733;BME280;12047;53.450;-2.286;2023-04-25T08:29:11;101663.09;;;15.49;52.68
23733;BME280;12047;53.450;-2.286;2023-04-25T08:34:12;101664.28;;;16.01;52.93
23733;BME280;12047;53.450;-2.286;2023-04-25T08:39:12;101668.03;;;16.97;50.74
23733;BME280;12047;53.450;-2.286;2023-04-25T08:44:14;101666.63;;;15.03;50.75
23733;BME280;12047;53.450;-2.286;2023-04-25T08:49:17;101668.44;;;16.66;50.33
23733;BME280;12047;53.450;-2.286;2023-04-25T08:54:20;101664.75;;;16.85;48.92
23733;BME280;12047;53.450;-2.286;2023-04-25T08:59:23;101675.19;;;14.96;50.59
23733;BME280;12047;53.450;-2.286;2023-04-25T09:04:24;101676.75;;;16.28;50.25
23733;BME280;12047;53.450;-2.286;2023-04-25T09:09:24;101670.47;;;16.90;48.25
23733;BME280;12047;53.450;-2.286;2023-04-25T09:14:25;101677.66;;;16.90;49.10
23733;BME280;12047;53.450;-2.286;2023-04-25T09:19:34;101674.97;;;18.01;47.63
23733;BME280;12047;53.450;-2.286;2023-04-25T09:24:43;101677.22;;;18.30;46.26
23733;BME280;12047;53.450;-2.286;2023-04-25T09:29:45;101679.78;;;16.15;50.01
23733;BME280;12047;53.450;-2.286;2023-04-25T09:34:48;101663.25;;;18.19;48.58
23733;BME280;12047;53.450;-2.286;2023-04-25T09:39:54;101674.44;;;17.98;46.86
23733;BME280;12047;53.450;-2.286;2023-04-25T09:44:55;101666.41;;;17.64;46.19
23733;BME280;12047;53.450;-2.286;2023-04-25T09:49:56;101670.56;;;18.75;45.95
23733;BME280;12047;53.450;-2.286;2023-04-25T09:54:57;101676.72;;;18.51;44.46
23733;BME280;12047;53.450;-2.286;2023-04-25T10:00:00;101662.84;;;17.89;45.17
23733;BME280;12047;53.450;-2.286;2023-04-25T10:05:02;101666.09;;;18.17;44.16
23733;BME280;12047;53.450;-2.286;2023-04-25T10:10:06;101680.56;;;18.57;43.08
23733;BME280;12047;53.450;-2.286;2023-04-25T10:15:08;101676.28;;;18.72;43.82
23733;BME280;12047;53.450;-2.286;2023-04-25T10:20:09;101661.69;;;17.92;46.41
23733;BME280;12047;53.450;-2.286;2023-04-25T10:25:11;101679.19;;;18.20;45.45
23733;BME280;12047;53.450;-2.286;2023-04-25T10:30:15;101658.63;;;19.65;44.57
23733;BME280;12047;53.450;-2.286;2023-04-25T10:35:18;101663.66;;;19.05;41.81
23733;BME280;12047;53.450;-2.286;2023-04-25T10:40:21;101667.06;;;18.08;43.19
23733;BME280;12047;53.450;-2.286;2023-04-25T10:45:22;101669.72;;;18.75;41.59
23733;BME280;12047;53.450;-2.286;2023-04-25T10:50:37;101659.72;;;16.82;41.95
23733;BME280;12047;53.450;-2.286;2023-04-25T10:55:50;101656.63;;;18.88;44.67
23733;BME280;12047;53.450;-2.286;2023-04-25T11:00:51;101658.44;;;18.47;45.79
23733;BME280;12047;53.450;-2.286;2023-04-25T11:05:53;101654.44;;;18.51;44.63
23733;BME280;12047;53.450;-2.286;2023-04-25T11:10:54;101655.31;;;17.93;42.96
23733;BME280;12047;53.450;-2.286;2023-04-25T11:15:55;101650.47;;;17.62;43.16
23733;BME280;12047;53.450;-2.286;2023-04-25T11:20:55;101653.19;;;17.03;43.83
23733;BME280;12047;53.450;-2.286;2023-04-25T11:25:56;101640.78;;;18.04;43.63
23733;BME280;12047;53.450;-2.286;2023-04-25T11:30:57;101645.00;;;18.39;43.04
23733;BME280;12047;53.450;-2.286;2023-04-25T11:35:57;101641.38;;;18.72;41.15
23733;BME280;12047;53.450;-2.286;2023-04-25T11:40:58;101643.03;;;18.73;43.56
23733;BME280;12047;53.450;-2.286;2023-04-25T11:45:58;101635.69;;;17.92;41.31
23733;BME280;12047;53.450;-2.286;2023-04-25T11:51:00;101643.56;;;17.18;41.94
23733;BME280;12047;53.450;-2.286;2023-04-25T11:56:01;101633.97;;;17.41;41.55
23733;BME280;12047;53.450;-2.286;2023-04-25T12:01:02;101625.22;;;17.31;41.63
23733;BME280;12047;53.450;-2.286;2023-04-25T12:06:03;101624.03;;;17.33;41.91
23733;BME280;12047;53.450;-2.286;2023-04-25T12:11:04;101623.84;;;18.11;41.37
23733;BME280;12047;53.450;-2.286;2023-04-25T12:16:05;101636.75;;;18.16;41.49
23733;BME280;12047;53.450;-2.286;2023-04-25T12:21:05;101634.78;;;18.26;41.20
23733;BME280;12047;53.450;-2.286;2023-04-25T12:26:06;101632.66;;;17.79;39.75
23733;BME280;12047;53.450;-2.286;2023-04-25T12:31:07;101629.16;;;17.87;39.47
23733;BME280;12047;53.450;-2.286;2023-04-25T12:36:08;101627.03;;;18.15;38.11
23733;BME280;12047;53.450;-2.286;2023-04-25T12:41:10;101605.00;;;16.85;39.38
23733;BME280;12047;53.450;-2.286;2023-04-25T12:46:11;101620.09;;;17.88;38.98
23733;BME280;12047;53.450;-2.286;2023-04-25T12:51:11;101617.50;;;18.93;39.85
23733;BME280;12047;53.450;-2.286;2023-04-25T12:56:12;101621.09;;;17.79;39.63
23733;BME280;12047;53.450;-2.286;2023-04-25T13:01:12;101619.91;;;17.13;40.13
23733;BME280;12047;53.450;-2.286;2023-04-25T13:06:14;101621.22;;;18.76;39.22
23733;BME280;12047;53.450;-2.286;2023-04-25T13:11:15;101621.94;;;17.79;40.93
23733;BME280;12047;53.450;-2.286;2023-04-25T13:16:16;101621.78;;;17.81;42.19
23733;BME280;12047;53.450;-2.286;2023-04-25T13:21:16;101622.59;;;17.73;41.44
23733;BME280;12047;53.450;-2.286;2023-04-25T13:26:17;101626.72;;;17.33;41.34
23733;BME280;12047;53.450;-2.286;2023-04-25T13:31:17;101629.50;;;17.92;42.45
23733;BME280;12047;53.450;-2.286;2023-04-25T13:36:18;101628.19;;;17.96;41.28
23733;BME280;12047;53.450;-2.286;2023-04-25T13:41:18;101628.38;;;18.11;44.22
23733;BME280;12047;53.450;-2.286;2023-04-25T13:46:19;101628.75;;;18.48;42.10
23733;BME280;12047;53.450;-2.286;2023-04-25T13:51:19;101627.72;;;18.25;40.03
23733;BME280;12047;53.450;-2.286;2023-04-25T13:56:20;101615.59;;;19.18;43.19
23733;BME280;12047;53.450;-2.286;2023-04-25T14:01:22;101605.56;;;18.15;41.31
23733;BME280;12047;53.450;-2.286;2023-04-25T14:06:22;101599.06;;;19.37;42.13
23733;BME280;12047;53.450;-2.286;2023-04-25T14:11:24;101616.94;;;17.50;41.03
23733;BME280;12047;53.450;-2.286;2023-04-25T14:16:25;101613.66;;;18.23;40.69
23733;BME280;12047;53.450;-2.286;2023-04-25T14:21:26;101604.78;;;18.71;41.43
23733;BME280;12047;53.450;-2.286;2023-04-25T14:26:27;101611.28;;;18.93;38.91
23733;BME280;12047;53.450;-2.286;2023-04-25T14:31:27;101607.56;;;18.13;38.31
23733;BME280;12047;53.450;-2.286;2023-04-25T14:36:28;101603.84;;;17.81;38.61
23733;BME280;12047;53.450;-2.286;2023-04-25T14:41:29;101602.25;;;18.45;40.36
23733;BME280;12047;53.450;-2.286;2023-04-25T14:46:29;101602.94;;;18.72;39.88
23733;BME280;12047;53.450;-2.286;2023-04-25T14:51:30;101599.72;;;18.27;39.96
23733;BME280;12047;53.450;-2.286;2023-04-25T14:56:31;101602.72;;;18.32;41.52
23733;BME280;12047;53.450;-2.286;2023-04-25T15:01:32;101606.19;;;17.76;41.43
23733;BME280;12047;53.450;-2.286;2023-04-25T15:06:33;101596.63;;;17.82;40.21
23733;BME280;12047;53.450;-2.286;2023-04-25T15:11:33;101598.88;;;18.43;42.56
23733;BME280;12047;53.450;-2.286;2023-04-25T15:16:34;101601.56;;;18.35;41.08
23733;BME280;12047;53.450;-2.286;2023-04-25T15:21:35;101600.34;;;17.81;42.40
23733;BME280;12047;53.450;-2.286;2023-04-25T15:26:35;101594.38;;;18.27;41.20
23733;BME280;12047;53.450;-2.286;2023-04-25T15:31:36;101584.75;;;17.42;40.49
23733;BME280;12047;53.450;-2.286;2023-04-25T15:36:36;101579.53;;;17.83;42.17
23733;BME280;12047;53.450;-2.286;2023-04-25T15:41:37;101581.44;;;17.98;40.56
23733;BME280;12047;53.450;-2.286;2023-04-25T15:46:38;101576.56;;;17.94;39.97
23733;BME280;12047;53.450;-2.286;2023-04-25T15:51:38;101580.56;;;17.90;40.29
23733;BME280;12047;53.450;-2.286;2023-04-25T15:56:39;101566.19;;;17.49;39.68
23733;BME280;12047;53.450;-2.286;2023-04-25T16:01:39;101557.66;;;16.85;41.41
23733;BME280;12047;53.450;-2.286;2023-04-25T16:06:40;101561.47;;;18.58;41.25
23733;BME280;12047;53.450;-2.286;2023-04-25T16:11:41;101557.31;;;18.63;41.39
23733;BME280;12047;53.450;-2.286;2023-04-25T16:16:42;101548.25;;;19.20;40.52
23733;BME280;12047;53.450;-2.286;2023-04-25T16:21:44;101543.72;;;19.59;41.81
23733;BME280;12047;53.450;-2.286;2023-04-25T16:26:45;101547.25;;;19.60;39.61
23733;BME280;12047;53.450;-2.286;2023-04-25T16:31:45;101549.28;;;19.11;39.04
23733;BME280;12047;53.450;-2.286;2023-04-25T16:36:46;101546.84;;;18.93;40.41
23733;BME280;12047;53.450;-2.286;2023-04-25T16:41:50;101541.22;;;19.58;41.03
23733;BME280;12047;53.450;-2.286;2023-04-25T16:46:51;101537.59;;;19.03;37.58
23733;BME280;12047;53.450;-2.286;2023-04-25T16:51:51;101533.31;;;19.25;39.66
23733;BME280;12047;53.450;-2.286;2023-04-25T16:56:52;101533.81;;;19.21;37.94
23733;BME280;12047;53.450;-2.286;2023-04-25T17:01:55;101525.56;;;18.59;39.61
23733;BME280;12047;53.450;-2.286;2023-04-25T17:06:55;101525.34;;;18.93;39.13
23733;BME280;12047;53.450;-2.286;2023-04-25T17:11:56;101517.94;;;19.42;37.81
23733;BME280;12047;53.450;-2.286;2023-04-25T17:16:57;101526.03;;;18.95;38.57
23733;BME280;12047;53.450;-2.286;2023-04-25T17:21:57;101515.19;;;18.64;39.80
23733;BME280;12047;53.450;-2.286;2023-04-25T17:26:58;101514.13;;;18.81;40.13
23733;BME280;12047;53.450;-2.286;2023-04-25T17:31:58;101524.59;;;18.35;40.22
23733;BME280;12047;53.450;-2.286;2023-04-25T17:36:59;101518.22;;;18.53;40.73
23733;BME280;12047;53.450;-2.286;2023-04-25T17:41:59;101523.59;;;17.96;40.52
23733;BME280;12047;53.450;-2.286;2023-04-25T17:47:00;101518.72;;;18.08;42.38
23733;BME280;12047;53.450;-2.286;2023-04-25T17:52:01;101522.81;;;17.61;42.45
23733;BME280;12047;53.450;-2.286;2023-04-25T17:57:01;101516.53;;;18.52;42.04
23733;BME280;12047;53.450;-2.286;2023-04-25T18:02:03;101515.69;;;18.51;43.61
23733;BME280;12047;53.450;-2.286;2023-04-25T18:07:04;101521.09;;;18.02;42.39
23733;BME280;12047;53.450;-2.286;2023-04-25T18:12:05;101516.75;;;18.01;42.57
23733;BME280;12047;53.450;-2.286;2023-04-25T18:17:07;101523.25;;;17.91;41.18
23733;BME280;12047;53.450;-2.286;2023-04-25T18:22:08;101525.78;;;18.00;41.95
23733;BME280;12047;53.450;-2.286;2023-04-25T18:27:08;101529.13;;;17.94;41.32
23733;BME280;12047;53.450;-2.286;2023-04-25T18:32:10;101532.47;;;18.45;42.02
23733;BME280;12047;53.450;-2.286;2023-04-25T18:37:10;101528.97;;;18.20;42.96
23733;BME280;12047;53.450;-2.286;2023-04-25T18:42:12;101541.69;;;17.78;43.09
23733;BME280;12047;53.450;-2.286;2023-04-25T18:47:13;101539.03;;;18.02;44.59
23733;BME280;12047;53.450;-2.286;2023-04-25T18:52:13;101542.03;;;18.07;44.17
23733;BME280;12047;53.450;-2.286;2023-04-25T18:57:15;101537.00;;;17.80;45.67
23733;BME280;12047;53.450;-2.286;2023-04-25T19:02:17;101546.19;;;17.77;46.03
23733;BME280;12047;53.450;-2.286;2023-04-25T19:07:17;101549.47;;;17.55;46.26
23733;BME280;12047;53.450;-2.286;2023-04-25T19:12:20;101553.50;;;17.17;48.37
23733;BME280;12047;53.450;-2.286;2023-04-25T19:17:21;101561.69;;;16.81;47.01
23733;BME280;12047;53.450;-2.286;2023-04-25T19:22:21;101555.44;;;16.55;47.03
23733;BME280;12047;53.450;-2.286;2023-04-25T19:27:22;101553.28;;;16.58;48.20
23733;BME280;12047;53.450;-2.286;2023-04-25T19:32:23;101550.44;;;16.78;47.43
23733;BME280;12047;53.450;-2.286;2023-04-25T19:37:24;101560.63;;;16.74;47.91
23733;BME280;12047;53.450;-2.286;2023-04-25T19:42:25;101574.50;;;16.52;48.07
23733;BME280;12047;53.450;-2.286;2023-04-25T19:47:25;101573.81;;;15.96;48.98
23733;BME280;12047;53.450;-2.286;2023-04-25T19:52:27;101586.50;;;15.94;49.58
23733;BME280;12047;53.450;-2.286;2023-04-25T19:57:27;101583.97;;;16.46;48.96
23733;BME280;12047;53.450;-2.286;2023-04-25T20:02:36;101594.09;;;15.72;49.78
23733;BME280;12047;53.450;-2.286;2023-04-25T20:07:37;101590.59;;;16.78;49.40
23733;BME280;12047;53.450;-2.286;2023-04-25T20:12:37;101589.34;;;16.28;51.12
23733;BME280;12047;53.450;-2.286;2023-04-25T20:17:41;101596.91;;;15.97;51.18
23733;BME280;12047;53.450;-2.286;2023-04-25T20:22:42;101598.03;;;16.48;51.81
23733;BME280;12047;53.450;-2.286;2023-04-25T20:27:42;101596.09;;;16.76;52.13
23733;BME280;12047;53.450;-2.286;2023-04-25T20:32:44;101590.16;;;16.64;52.78
23733;BME280;12047;53.450;-2.286;2023-04-25T20:37:44;101584.03;;;16.54;52.84
23733;BME280;12047;53.450;-2.286;2023-04-25T20:42:45;101586.38;;;16.31;54.42
23733;BME280;12047;53.450;-2.286;2023-04-25T20:47:46;101579.56;;;16.19;55.50
23733;BME280;12047;53.450;-2.286;2023-04-25T20:52:46;101579.56;;;16.19;55.62
23733;BME280;12047;53.450;-2.286;2023-04-25T20:57:51;101567.50;;;16.33;55.39
23733;BME280;12047;53.450;-2.286;2023-04-25T21:02:51;101576.50;;;16.32;55.67
23733;BME280;12047;53.450;-2.286;2023-04-25T21:07:52;101571.84;;;16.60;55.43
23733;BME280;12047;53.450;-2.286;2023-04-25T21:12:52;101571.81;;;16.34;55.42
23733;BME280;12047;53.450;-2.286;2023-04-25T21:17:54;101568.22;;;16.43;56.52
23733;BME280;12047;53.450;-2.286;2023-04-25T21:22:55;101581.16;;;16.30;56.62
23733;BME280;12047;53.450;-2.286;2023-04-25T21:27:56;101583.69;;;16.14;57.12
23733;BME280;12047;53.450;-2.286;2023-04-25T21:32:57;101580.56;;;15.83;56.76
23733;BME280;12047;53.450;-2.286;2023-04-25T21:38:00;101578.25;;;15.88;57.50
23733;BME280;12047;53.450;-2.286;2023-04-25T21:43:01;101587.59;;;15.56;57.97
23733;BME280;12047;53.450;-2.286;2023-04-25T21:48:01;101581.28;;;15.48;59.17
23733;BME280;12047;53.450;-2.286;2023-04-25T21:53:02;101583.19;;;14.91;59.31
23733;BME280;12047;53.450;-2.286;2023-04-25T21:58:03;101586.84;;;14.90;59.17
23733;BME280;12047;53.450;-2.286;2023-04-25T22:03:03;101580.19;;;14.57;60.21
23733;BME280;12047;53.450;-2.286;2023-04-25T22:08:04;101588.84;;;14.11;62.12
23733;BME280;12047;53.450;-2.286;2023-04-25T22:13:05;101596.75;;;14.51;61.74
23733;BME280;12047;53.450;-2.286;2023-04-25T22:18:05;101598.13;;;14.36;62.93
23733;BME280;12047;53.450;-2.286;2023-04-25T22:23:07;101599.63;;;14.86;63.61
23733;BME280;12047;53.450;-2.286;2023-04-25T22:28:07;101596.00;;;15.24;62.87
23733;BME280;12047;53.450;-2.286;2023-04-25T22:33:08;101591.50;;;15.25;64.38
23733;BME280;12047;53.450;-2.286;2023-04-25T22:38:08;101590.97;;;15.49;64.21
23733;BME280;12047;53.450;-2.286;2023-04-25T22:43:09;101592.28;;;15.72;63.77
23733;BME280;12047;53.450;-2.286;2023-04-25T22:48:10;101590.13;;;15.58;63.78
23733;BME280;12047;53.450;-2.286;2023-04-25T22:53:10;101584.38;;;14.79;65.21
23733;BME280;12047;53.450;-2.286;2023-04-25T22:58:11;101593.03;;;13.75;65.37
23733;BME280;12047;53.450;-2.286;2023-04-25T23:03:12;101595.03;;;14.11;66.18
23733;BME280;12047;53.450;-2.286;2023-04-25T23:08:13;101597.56;;;14.61;65.06
23733;BME280;12047;53.450;-2.286;2023-04-25T23:13:17;101593.66;;;14.46;65.32
23733;BME280;12047;53.450;-2.286;2023-04-25T23:18:18;101594.34;;;14.09;65.34
23733;BME280;12047;53.450;-2.286;2023-04-25T23:23:19;101595.75;;;13.44;66.24
23733;BME280;12047;53.450;-2.286;2023-04-25T23:28:19;101597.09;;;13.69;66.67
23733;BME280;12047;53.450;-2.286;2023-04-25T23:33:19;101599.44;;;13.53;67.10
23733;BME280;12047;53.450;-2.286;2023-04-25T23:38:20;101594.19;;;13.11;68.73
23733;BME280;12047;53.450;-2.286;2023-04-25T23:43:21;101601.91;;;13.14;68.67
23733;BME280;12047;53.450;-2.286;2023-04-25T23:48:21;101599.59;;;12.38;70.01
23733;BME280;12047;53.450;-2.286;2023-04-25T23:53:22;101606.09;;;12.45;69.08
23733;BME280;12047;53.450;-2.286;2023-04-25T23:58:22;101596.56;;;12.42;69.11
